Aviation Digital Data Service (ADDS)

Output produced by METARs form (2237 UTC 30 March 2017)
found at http://www.aviationweather.gov/adds/metars/
 
EDAC 301720Z 14002KT CAVOK 17/13 Q1024
TAF EDAC 301700Z 3018/3103 17004KT CAVOK
       
EDMA 301850Z 08006KT CAVOK 10/06 Q1024
TAF EDMA 301700Z 3018/3103 10004KT CAVOK
       
EDVE 301750Z 21004KT CAVOK 19/09 Q1022
EDDW 302220Z 19003KT CAVOK 12/09 Q1020
TAF EDDW 301700Z 3018/3118 22006KT CAVOK 
     BECMG 3022/3024 15005KT 
     BECMG 3108/3110 17010KT
       
ETSB 302220Z AUTO 14005KT 9999 // ////// 12/05 Q1021 ///
TAF COR ETSB 301951Z 3020/3105 12005KT 9999 NSW FEW050 BKN300 CANCEL 2000 BY ETGL
       
ETHB 302220Z 18007KT 9999 15/09 Q1021 BLU+
TAF AMD ETHB 301531Z 3014/3023 24010KT 9999 NSW FEW050 SCT080 CANCEL 1600
       
ETHC 302220Z 00000KT 9999 SCT250 11/07 Q1021 BLU+
TAF AMD ETHC 301557Z 3014/3023 23008KT 9999 NSW FEW050 SCT070 CANCEL 1630
       
EDLW 301950Z 14006KT CAVOK 16/05 Q1021
TAF EDLW 301700Z 3018/3118 17008KT CAVOK 
     BECMG 3109/3112 17013KT 
     BECMG 3116/3118 20008KT
       
EDDC 302220Z 17004KT CAVOK 10/07 Q1024
TAF EDDC 301700Z 3018/3118 17005KT CAVOK 
     BECMG 3106/3109 16010KT
       
EDDL 302220Z 16008KT CAVOK 15/07 Q1020 NOSIG
TAF EDDL 301700Z 3018/3124 17009KT CAVOK 
     TEMPO 3111/3115 18015G25KT
       
EDFE 301950Z AUTO 12002KT //// R27///// // /// 14/07 Q1022
EDDE 302220Z 19008KT CAVOK 11/07 Q1023
TAF EDDE 301700Z 3018/3118 20008KT CAVOK
       
ETHS 302220Z 24001KT 9999 FEW240 09/08 Q1021 BLU+
TAF AMD ETHS 301526Z 3014/3023 24010KT 9999 NSW FEW040 SCT080 BKN240 CANCEL 1600
       
EDFH 302220Z 14009KT CAVOK 11/06 Q1021
TAF EDFH 301700Z 3018/3118 15008KT CAVOK 
     BECMG 3108/3111 21013KT 
     TEMPO 3111/3115 21015G25KT 
     BECMG 3116/3118 20008KT
       
EDDF 302220Z VRB02KT CAVOK 13/07 Q1022 NOSIG
TAF EDDF 301700Z 3018/3124 VRB03KT CAVOK 
     TEMPO 3100/3106 05005KT 
     BECMG 3106/3109 21006KT 
     BECMG 3110/3113 21011KT 
     BECMG 3115/3118 20006KT 
     BECMG 3118/3121 VRB02KT
       
EDNY 302220Z AUTO VRB03KT 9999 07/05 Q1023
TAF EDNY 301700Z 3018/3118 04003KT CAVOK 
     BECMG 3109/3111 21005KT 
     BECMG 3115/3117 VRB03KT
       
ETHF 302220Z 33001KT 9999 FEW100 BKN240 08/06 Q1023 BLU+
TAF AMD ETHF 301434Z 3014/3023 18006KT 9999 NSW FEW040 SCT060 CANCEL 1500
       
ETNG 302150Z 16003KT CAVOK 16/07 Q1020
TAF ETNG 302000Z 3021/3112 15005KT CAVOK 
     BECMG 3007/3009 19010G18KT
       
ETIC 302158Z AUTO 00000KT 9999 CLR 06/05 A3025 RMK AO2 SLP250
TAF ETIC 302200Z 3022/0104 VRB06KT 9999 FEW030 QNH3011INS 
     BECMG 3108/3109 18009KT 9999 SCT210 QNH2999INS 
     BECMG 3118/3119 VRB06KT 8000 BR SCT260 QNH2995INS TX19/3114Z TN05/3105Z
       
EDDH 302220Z 14003KT 100V160 CAVOK 12/10 Q1020 NOSIG
TAF EDDH 301700Z 3018/3124 21006KT CAVOK 
     BECMG 3107/3109 18011KT 
     BECMG 3117/3119 19006KT
       
EDHI 301850Z 22004KT CAVOK 16/10 Q1021
EDDV 302220Z 17004KT CAVOK 14/08 Q1021
TAF EDDV 301700Z 3018/3118 22005KT CAVOK 
     BECMG 3019/3021 16006KT 
     BECMG 3107/3109 18011KT
       
TAF EDAH 301400Z 3015/3024 20006KT 9999 BKN020
       
EDQM 301750Z 00000KT CAVOK 11/06 Q1025
TAF EDQM 301700Z 3018/3103 VRB03KT CAVOK
       
ETIH 302158Z AUTO 00000KT 9999 CLR 07/05 A3026 RMK AO2 SLP249
TAF ETIH 302102Z 3021/0103 VRB06KT 9999 SCT035 QNH3011INS 
     BECMG 3108/3109 16009KT 9999 SCT210 QNH3002INS 
     BECMG 3118/3119 VRB06KT 8000 BR FEW250 QNH2998INS TX19/3115Z TN05/3105Z
       
ETNH 302220Z 18007KT 9999 BKN060 13/08 Q1019 BLU
TAF ETNH 302210Z 3023/3111 20008KT 9999 NSW SCT050 BKN200 BY ETGL
       
ETSH 302120Z 15005KT 9999 FEW250 11/09 Q1023 BLU+BLU TEMPO WHT
TAF AMD ETSH 302128Z 3014/3023 23006KT 9999 NSW SCT030 BKN120 
     TEMPO 3018/3023 16003KT 5000 BR FEW030 SCT120 CANCEL 2200
       
ETSI 302220Z AUTO 08001KT 4300 // ////// 08/06 Q1024 ///
TAF AMD ETSI 301411Z 3014/3023 09005KT 9999 NSW SCT070 BKN250 CANCEL 1500
       
EDSB 302120Z VRB01KT CAVOK 11/07 Q1022
TAF EDSB 301700Z 3018/3118 02005KT CAVOK 
     BECMG 3018/3020 VRB02KT 
     BECMG 3108/3111 27005KT
       
EDVK 302120Z 09003KT CAVOK 11/07 Q1023
TAF EDVK 302000Z 3021/3101 16005KT CAVOK
       
EDDK 302220Z 11005KT CAVOK 15/07 Q1020 NOSIG
TAF EDDK 301700Z 3018/3124 15007KT CAVOK 
     BECMG 3109/3112 18012KT 
     BECMG 3118/3121 16006KT
       
ETNL 302220Z 24007KT 9999 15/10 Q1020 BLU+
TAF ETNL 302200Z 3023/3111 20005KT 9999 NSW SCT045 BKN300 
     TEMPO 3103/3106 22004KT 5000 BR FEW010 BKN080 BY ETGL
       
EDTL 301720Z 01005KT CAVOK 19/08 Q1022
TAF EDTL 301700Z 3018/3024 VRB03KT CAVOK
       
ETSA 302220Z 16002KT 9999 FEW300 09/04 Q1023 BLU+
TAF ETSA 302220Z 3023/3111 12004KT 9999 NSW SCT300 BY ETGL
       
ETHL 302220Z 06002KT 9999 SCT270 08/05 Q1023 BLU+
TAF AMD ETHL 301950Z 3019/3102 04003KT 9999 NSW BKN270 CANCEL 2000
       
ETSL 302220Z 04001KT 9999 SCT300 07/03 Q1023 BLU+
TAF AMD ETSL 301857Z 3018/3102 VRB03KT 9999 NSW FEW050 SCT300 CANCEL 1900 BY ETGL
       
EDDP 302220Z 15007KT CAVOK 10/08 Q1023 NOSIG
TAF EDDP 301700Z 3018/3118 18008KT CAVOK
       
EDHL 301750Z 25004KT 9999 FEW042 SCT071 17/11 Q1020
EDFM 301920Z 12001KT CAVOK 14/07 Q1022
EDLN 301820Z 10005KT CAVOK 17/10 Q1021
TAF EDLN 301700Z 3018/3103 15005KT CAVOK
       
EDDM 302220Z 32001KT CAVOK 08/05 Q1024 NOSIG
TAF EDDM 301700Z 3018/3124 08004KT CAVOK 
     PROB30 
     TEMPO 3103/3107 4000 BR
       
EDDG 302220Z 14004KT 110V170 CAVOK 13/07 Q1020 NOSIG
TAF EDDG 301700Z 3018/3118 19005KT CAVOK 
     BECMG 3023/3101 13004KT 
     BECMG 3109/3112 18009KT
       
ETSN 302220Z 02003KT 9999 FEW280 08/05 Q1024 BLU+
TAF ETSN 302200Z 3023/3108 VRB03KT 9999 NSW FEW280 BY ETGL
       
ETHN 302220Z 12006KT 9999 SCT250 12/06 Q1023 BLU+
TAF AMD ETHN 301458Z 3014/3023 10005KT 9999 NSW FEW040 CANCEL 1500
       
ETMN 302220Z 19005KT 9999 BKN090 14/09 Q1020 BLU
TAF AMD ETMN 301802Z 3017/3102 23008KT 9999 NSW SCT030 SCT060 BKN280 CANCEL 1850
       
ETNN 302220Z VRB03KT 9999 SCT230 12/07 Q1020 BLU+
EDDN 302220Z 11003KT 030V130 CAVOK 11/07 Q1024
TAF EDDN 301700Z 3018/3118 11005KT CAVOK
       
EDMO 301820Z 08003KT CAVOK 14/05 Q1024
TAF EDMO 301700Z 3018/3103 13003KT CAVOK
       
EDLP 302220Z 16006KT CAVOK 13/06 Q1022
TAF EDLP 301700Z 3018/3118 18005KT CAVOK 
     BECMG 3102/3105 17010KT
       
ETAR 302158Z 00000KT 9999 CLR 09/07 A3016 RMK AO2A SLP215 T00870071 $
TAF ETAR 301800Z 3018/3124 VRB06KT 9999 FEW060 QNH3006INS 
     BECMG 3107/3108 22010G15KT 9999 SCT200 QNH2996INS 
     TEMPO 3110/3115 22015G25KT 510003 
     BECMG 3116/3117 21012KT 9999 SCT200 QNH2994INS TX21/3114Z TN05/3103Z
       
ETHE 302220Z AUTO 16003KT //// // ////// 14/07 Q1020 ///
EDDR 302220Z 09007KT CAVOK 11/07 Q1021 NOSIG
TAF EDDR 301700Z 3018/3118 08005KT CAVOK 
     BECMG 3101/3104 16005KT 
     BECMG 3107/3110 20012KT 
     TEMPO 3112/3115 21015G25KT 
     BECMG 3116/3118 20007KT
       
ETNS 302220Z AUTO 19003KT //// // ////// 11/07 Q1019 ///
TAF AMD ETNS 301500Z 3015/3023 24012G22KT 9999 NSW FEW015 BKN045 
     TEMPO 3015/3016 26015G30KT 9999 NSW SCT050 SCT250 CANCEL 1500Z BY ETGL
       
EDDB 302220Z 18006KT CAVOK 11/08 Q1023 NOSIG
TAF EDDB 301700Z 3018/3118 20006KT CAVOK
       
EDTY 301750Z 08005KT CAVOK 15/08 Q1024
TAF EDTY 301700Z 3018/3103 10004KT CAVOK
       
TAF EDOP 301700Z 3018/3118 22007KT CAVOK 
     BECMG 3108/3110 16010KT
       
EDGS 301850Z 15004KT CAVOK 13/07 Q1023
TAF EDGS 301700Z 3018/3103 16007KT CAVOK
       
ETAD 302158Z AUTO 08004KT 9999 CLR 12/06 A3016 RMK AO2 SLP201 T01170061 TSNO $
TAF AMD ETAD 301946Z 3019/0101 14006KT 9999 SCT200 QNH3000INS 
     BECMG 3108/3109 21012KT 9999 SCT200 QNH2996INS 
     TEMPO 3111/3115 21010G15KT 
     BECMG 3119/3120 20006KT 9999 BKN050 OVC150 QNH2994INS TX19/3115Z TN06/3103Z LAST NO AMDS AFT 3020 NEXT 3104
       
EDDS 302220Z VRB02KT CAVOK 10/06 Q1022
TAF EDDS 301700Z 3018/3118 VRB02KT CAVOK 
     TEMPO 3113/3118 28005KT
       
EDDT 302220Z 20007KT CAVOK 14/09 Q1022
TAF EDDT 301700Z 3018/3118 20007KT CAVOK
       
EDXW 301650Z 24014KT CAVOK 09/// Q1018
ETOU 302158Z AUTO 00000KT 9999 CLR 13/07 A3018 RMK AO2 SLP221 T01280071
TAF AMD ETOU 301746Z 3017/3117 16009KT 9999 FEW040 SCT200 QNH3018INS 
     BECMG 3019/3020 VRB06KT 8000 BR SCT200 QNH3005INS 
     BECMG 3108/3109 21009KT 9999 NSW BKN200 QNH2996INS 
     TEMPO 3112/3117 21015G25KT 510003 TX19/3017Z TN06/3105Z LAST NO AMDS AFT 3017 NEXT 3106
       
ETNT 302220Z 18005KT 9999 SCT090 13/09 Q1019 BLU+
TAF ETNT 302200Z 3023/3108 17008KT 9999 NSW SCT080 BKN280 BY ETGL
       
ETNW 302220Z 17005KT 9999 FEW260 13/08 Q1021 BLU+
TAF ETNW 302220Z 3023/3123 16008KT 9999 NSW FEW060 BKN220 BY ETGL